sensor_id;sensor_type;location;lat;lon;timestamp;P1;durP1;ratioP1;P2;durP2;ratioP2
39242;SDS011;29823;47.404;8.566;2023-06-26T00:01:07;8.10;;;5.90;;
39242;SDS011;29823;47.404;8.566;2023-06-26T00:03:35;10.45;;;6.88;;
39242;SDS011;29823;47.404;8.566;2023-06-26T00:06:04;12.50;;;6.82;;
39242;SDS011;29823;47.404;8.566;2023-06-26T00:08:32;14.18;;;7.80;;
39242;SDS011;29823;47.404;8.566;2023-06-26T00:11:00;9.27;;;7.22;;
39242;SDS011;29823;47.404;8.566;2023-06-26T00:13:28;8.25;;;6.53;;
39242;SDS011;29823;47.404;8.566;2023-06-26T00:15:56;7.53;;;6.07;;
39242;SDS011;29823;47.404;8.566;2023-06-26T00:18:24;10.05;;;6.15;;
39242;SDS011;29823;47.404;8.566;2023-06-26T00:20:52;13.73;;;6.95;;
39242;SDS011;29823;47.404;8.566;2023-06-26T00:23:21;7.53;;;6.28;;
39242;SDS011;29823;47.404;8.566;2023-06-26T00:25:49;8.38;;;6.07;;
39242;SDS011;29823;47.404;8.566;2023-06-26T00:28:17;8.90;;;6.63;;
39242;SDS011;29823;47.404;8.566;2023-06-26T00:30:44;8.77;;;6.75;;
39242;SDS011;29823;47.404;8.566;2023-06-26T00:33:12;9.02;;;5.93;;
39242;SDS011;29823;47.404;8.566;2023-06-26T00:35:40;11.45;;;8.00;;
39242;SDS011;29823;47.404;8.566;2023-06-26T00:38:08;10.25;;;6.15;;
39242;SDS011;29823;47.404;8.566;2023-06-26T00:40:37;8.25;;;6.35;;
39242;SDS011;29823;47.404;8.566;2023-06-26T00:43:05;10.52;;;6.50;;
39242;SDS011;29823;47.404;8.566;2023-06-26T00:45:33;14.77;;;9.32;;
39242;SDS011;29823;47.404;8.566;2023-06-26T00:48:09;11.27;;;7.43;;
39242;SDS011;29823;47.404;8.566;2023-06-26T00:50:38;9.68;;;6.28;;
39242;SDS011;29823;47.404;8.566;2023-06-26T00:53:06;9.57;;;7.05;;
39242;SDS011;29823;47.404;8.566;2023-06-26T00:55:35;11.68;;;7.22;;
39242;SDS011;29823;47.404;8.566;2023-06-26T00:58:04;8.38;;;6.63;;
39242;SDS011;29823;47.404;8.566;2023-06-26T01:00:32;10.90;;;7.20;;
39242;SDS011;29823;47.404;8.566;2023-06-26T01:03:01;8.38;;;6.45;;
39242;SDS011;29823;47.404;8.566;2023-06-26T01:05:29;10.02;;;7.00;;
39242;SDS011;29823;47.404;8.566;2023-06-26T01:07:57;11.32;;;7.60;;
39242;SDS011;29823;47.404;8.566;2023-06-26T01:10:26;10.55;;;7.40;;
39242;SDS011;29823;47.404;8.566;2023-06-26T01:12:55;9.75;;;7.85;;
39242;SDS011;29823;47.404;8.566;2023-06-26T01:15:25;12.55;;;7.85;;
39242;SDS011;29823;47.404;8.566;2023-06-26T01:17:53;11.77;;;7.28;;
39242;SDS011;29823;47.404;8.566;2023-06-26T01:20:30;11.25;;;7.22;;
39242;SDS011;29823;47.404;8.566;2023-06-26T01:23:02;11.55;;;7.20;;
39242;SDS011;29823;47.404;8.566;2023-06-26T01:25:36;9.18;;;6.57;;
39242;SDS011;29823;47.404;8.566;2023-06-26T01:28:11;9.60;;;7.40;;
39242;SDS011;29823;47.404;8.566;2023-06-26T01:30:43;12.98;;;7.32;;
39242;SDS011;29823;47.404;8.566;2023-06-26T01:33:12;10.70;;;7.25;;
39242;SDS011;29823;47.404;8.566;2023-06-26T01:35:41;13.52;;;7.57;;
39242;SDS011;29823;47.404;8.566;2023-06-26T01:38:13;11.32;;;7.30;;
39242;SDS011;29823;47.404;8.566;2023-06-26T01:40:43;10.30;;;7.10;;
39242;SDS011;29823;47.404;8.566;2023-06-26T01:43:15;10.20;;;6.80;;
39242;SDS011;29823;47.404;8.566;2023-06-26T01:45:47;10.00;;;7.13;;
39242;SDS011;29823;47.404;8.566;2023-06-26T01:48:20;10.30;;;7.22;;
39242;SDS011;29823;47.404;8.566;2023-06-26T01:50:53;11.40;;;7.40;;
39242;SDS011;29823;47.404;8.566;2023-06-26T01:53:24;10.85;;;7.20;;
39242;SDS011;29823;47.404;8.566;2023-06-26T01:55:55;11.75;;;7.88;;
39242;SDS011;29823;47.404;8.566;2023-06-26T01:58:30;10.07;;;7.95;;
39242;SDS011;29823;47.404;8.566;2023-06-26T02:00:59;12.00;;;8.32;;
39242;SDS011;29823;47.404;8.566;2023-06-26T02:03:27;10.38;;;7.53;;
39242;SDS011;29823;47.404;8.566;2023-06-26T02:05:56;11.07;;;7.80;;
39242;SDS011;29823;47.404;8.566;2023-06-26T02:08:25;9.25;;;7.35;;
39242;SDS011;29823;47.404;8.566;2023-06-26T02:10:52;10.98;;;7.75;;
39242;SDS011;29823;47.404;8.566;2023-06-26T02:13:20;10.73;;;7.75;;
39242;SDS011;29823;47.404;8.566;2023-06-26T02:15:49;11.02;;;7.75;;
39242;SDS011;29823;47.404;8.566;2023-06-26T02:18:17;10.98;;;7.75;;
39242;SDS011;29823;47.404;8.566;2023-06-26T02:20:47;9.52;;;7.97;;
39242;SDS011;29823;47.404;8.566;2023-06-26T02:23:15;9.95;;;7.85;;
39242;SDS011;29823;47.404;8.566;2023-06-26T02:25:43;10.82;;;8.10;;
39242;SDS011;29823;47.404;8.566;2023-06-26T02:28:11;9.02;;;7.28;;
39242;SDS011;29823;47.404;8.566;2023-06-26T02:30:39;10.48;;;7.47;;
39242;SDS011;29823;47.404;8.566;2023-06-26T02:33:08;11.35;;;7.65;;
39242;SDS011;29823;47.404;8.566;2023-06-26T02:35:36;15.35;;;8.25;;
39242;SDS011;29823;47.404;8.566;2023-06-26T02:38:04;12.00;;;7.80;;
39242;SDS011;29823;47.404;8.566;2023-06-26T02:40:32;11.05;;;7.80;;
39242;SDS011;29823;47.404;8.566;2023-06-26T02:43:00;10.20;;;7.82;;
39242;SDS011;29823;47.404;8.566;2023-06-26T02:45:29;11.30;;;8.07;;
39242;SDS011;29823;47.404;8.566;2023-06-26T02:47:56;10.05;;;8.20;;
39242;SDS011;29823;47.404;8.566;2023-06-26T02:50:26;11.30;;;7.47;;
39242;SDS011;29823;47.404;8.566;2023-06-26T02:52:54;9.45;;;7.60;;
39242;SDS011;29823;47.404;8.566;2023-06-26T02:55:21;11.50;;;8.32;;
39242;SDS011;29823;47.404;8.566;2023-06-26T02:57:49;11.65;;;8.20;;
39242;SDS011;29823;47.404;8.566;2023-06-26T03:00:17;12.60;;;8.18;;
39242;SDS011;29823;47.404;8.566;2023-06-26T03:02:46;11.85;;;8.20;;
39242;SDS011;29823;47.404;8.566;2023-06-26T03:05:13;10.32;;;7.97;;
39242;SDS011;29823;47.404;8.566;2023-06-26T03:07:43;10.73;;;8.38;;
39242;SDS011;29823;47.404;8.566;2023-06-26T03:10:10;11.98;;;7.90;;
39242;SDS011;29823;47.404;8.566;2023-06-26T03:12:38;10.93;;;8.13;;
39242;SDS011;29823;47.404;8.566;2023-06-26T03:15:06;11.52;;;8.32;;
39242;SDS011;29823;47.404;8.566;2023-06-26T03:17:35;10.20;;;8.50;;
39242;SDS011;29823;47.404;8.566;2023-06-26T03:20:03;10.82;;;7.63;;
39242;SDS011;29823;47.404;8.566;2023-06-26T03:22:33;10.20;;;7.82;;
39242;SDS011;29823;47.404;8.566;2023-06-26T03:25:03;9.90;;;7.53;;
39242;SDS011;29823;47.404;8.566;2023-06-26T03:27:31;11.90;;;8.40;;
39242;SDS011;29823;47.404;8.566;2023-06-26T03:29:59;10.82;;;8.27;;
39242;SDS011;29823;47.404;8.566;2023-06-26T03:32:27;12.65;;;7.65;;
39242;SDS011;29823;47.404;8.566;2023-06-26T03:34:55;11.50;;;8.10;;
39242;SDS011;29823;47.404;8.566;2023-06-26T03:37:23;8.85;;;7.63;;
39242;SDS011;29823;47.404;8.566;2023-06-26T03:39:50;10.45;;;8.23;;
39242;SDS011;29823;47.404;8.566;2023-06-26T03:42:20;10.85;;;8.52;;
39242;SDS011;29823;47.404;8.566;2023-06-26T03:44:47;9.43;;;7.68;;
39242;SDS011;29823;47.404;8.566;2023-06-26T03:47:15;9.82;;;7.97;;
39242;SDS011;29823;47.404;8.566;2023-06-26T03:49:43;10.57;;;7.85;;
39242;SDS011;29823;47.404;8.566;2023-06-26T03:52:11;14.02;;;8.27;;
39242;SDS011;29823;47.404;8.566;2023-06-26T03:54:39;11.55;;;8.23;;
39242;SDS011;29823;47.404;8.566;2023-06-26T03:57:07;11.77;;;8.18;;
39242;SDS011;29823;47.404;8.566;2023-06-26T03:59:37;10.52;;;7.80;;
39242;SDS011;29823;47.404;8.566;2023-06-26T04:02:05;12.20;;;8.05;;
39242;SDS011;29823;47.404;8.566;2023-06-26T04:04:32;11.45;;;8.90;;
39242;SDS011;29823;47.404;8.566;2023-06-26T04:07:00;11.40;;;8.65;;
39242;SDS011;29823;47.404;8.566;2023-06-26T04:09:28;11.65;;;7.80;;
39242;SDS011;29823;47.404;8.566;2023-06-26T04:11:56;15.27;;;8.90;;
39242;SDS011;29823;47.404;8.566;2023-06-26T04:14:24;11.15;;;8.25;;
39242;SDS011;29823;47.404;8.566;2023-06-26T04:16:53;9.55;;;7.68;;
39242;SDS011;29823;47.404;8.566;2023-06-26T04:19:21;11.43;;;8.27;;
39242;SDS011;29823;47.404;8.566;2023-06-26T04:21:50;10.77;;;8.70;;
39242;SDS011;29823;47.404;8.566;2023-06-26T04:24:18;10.32;;;8.32;;
39242;SDS011;29823;47.404;8.566;2023-06-26T04:26:46;16.80;;;8.55;;
39242;SDS011;29823;47.404;8.566;2023-06-26T04:29:14;13.48;;;7.93;;
39242;SDS011;29823;47.404;8.566;2023-06-26T04:31:43;11.15;;;8.27;;
39242;SDS011;29823;47.404;8.566;2023-06-26T04:34:14;10.30;;;8.13;;
39242;SDS011;29823;47.404;8.566;2023-06-26T04:36:42;14.10;;;9.15;;
39242;SDS011;29823;47.404;8.566;2023-06-26T04:41:42;14.23;;;9.60;;
39242;SDS011;29823;47.404;8.566;2023-06-26T04:44:09;12.30;;;8.32;;
39242;SDS011;29823;47.404;8.566;2023-06-26T04:46:40;11.25;;;8.40;;
39242;SDS011;29823;47.404;8.566;2023-06-26T04:49:09;12.85;;;9.27;;
39242;SDS011;29823;47.404;8.566;2023-06-26T04:51:39;13.18;;;8.68;;
39242;SDS011;29823;47.404;8.566;2023-06-26T04:54:07;13.43;;;9.00;;
39242;SDS011;29823;47.404;8.566;2023-06-26T04:56:38;13.20;;;9.10;;
39242;SDS011;29823;47.404;8.566;2023-06-26T04:59:06;10.70;;;8.63;;
39242;SDS011;29823;47.404;8.566;2023-06-26T05:01:39;14.23;;;8.93;;
39242;SDS011;29823;47.404;8.566;2023-06-26T05:04:07;11.80;;;8.90;;
39242;SDS011;29823;47.404;8.566;2023-06-26T05:06:35;13.85;;;8.55;;
39242;SDS011;29823;47.404;8.566;2023-06-26T05:09:05;11.93;;;8.50;;
39242;SDS011;29823;47.404;8.566;2023-06-26T05:11:34;15.82;;;8.10;;
39242;SDS011;29823;47.404;8.566;2023-06-26T05:14:04;12.23;;;9.35;;
39242;SDS011;29823;47.404;8.566;2023-06-26T05:16:33;16.23;;;9.32;;
39242;SDS011;29823;47.404;8.566;2023-06-26T05:19:03;10.13;;;8.13;;
39242;SDS011;29823;47.404;8.566;2023-06-26T05:21:31;12.38;;;9.60;;
39242;SDS011;29823;47.404;8.566;2023-06-26T05:24:02;12.10;;;9.05;;
39242;SDS011;29823;47.404;8.566;2023-06-26T05:26:34;13.25;;;8.80;;
39242;SDS011;29823;47.404;8.566;2023-06-26T05:29:02;15.93;;;9.32;;
39242;SDS011;29823;47.404;8.566;2023-06-26T05:31:31;11.27;;;9.05;;
39242;SDS011;29823;47.404;8.566;2023-06-26T05:34:02;14.27;;;9.65;;
39242;SDS011;29823;47.404;8.566;2023-06-26T05:36:31;13.48;;;9.73;;
39242;SDS011;29823;47.404;8.566;2023-06-26T05:39:01;11.70;;;8.80;;
39242;SDS011;29823;47.404;8.566;2023-06-26T05:41:30;15.48;;;10.48;;
39242;SDS011;29823;47.404;8.566;2023-06-26T05:44:00;11.73;;;9.18;;
39242;SDS011;29823;47.404;8.566;2023-06-26T05:46:30;14.07;;;9.80;;
39242;SDS011;29823;47.404;8.566;2023-06-26T05:48:58;13.93;;;8.48;;
39242;SDS011;29823;47.404;8.566;2023-06-26T05:51:29;14.48;;;9.48;;
39242;SDS011;29823;47.404;8.566;2023-06-26T05:53:58;12.38;;;9.45;;
39242;SDS011;29823;47.404;8.566;2023-06-26T05:56:26;12.15;;;9.00;;
39242;SDS011;29823;47.404;8.566;2023-06-26T05:58:55;14.75;;;9.43;;
39242;SDS011;29823;47.404;8.566;2023-06-26T06:01:26;13.80;;;9.20;;
39242;SDS011;29823;47.404;8.566;2023-06-26T06:03:54;12.82;;;9.55;;
39242;SDS011;29823;47.404;8.566;2023-06-26T06:06:23;13.43;;;9.35;;
39242;SDS011;29823;47.404;8.566;2023-06-26T06:08:51;13.82;;;8.88;;
39242;SDS011;29823;47.404;8.566;2023-06-26T06:11:20;13.65;;;10.40;;
39242;SDS011;29823;47.404;8.566;2023-06-26T06:13:48;15.13;;;9.30;;
39242;SDS011;29823;47.404;8.566;2023-06-26T06:16:16;15.55;;;9.90;;
39242;SDS011;29823;47.404;8.566;2023-06-26T06:18:46;14.50;;;10.43;;
39242;SDS011;29823;47.404;8.566;2023-06-26T06:21:14;18.70;;;9.30;;
39242;SDS011;29823;47.404;8.566;2023-06-26T06:23:42;14.68;;;10.35;;
39242;SDS011;29823;47.404;8.566;2023-06-26T06:26:13;16.95;;;9.88;;
39242;SDS011;29823;47.404;8.566;2023-06-26T06:28:41;23.15;;;10.25;;
39242;SDS011;29823;47.404;8.566;2023-06-26T06:31:09;15.48;;;8.63;;
39242;SDS011;29823;47.404;8.566;2023-06-26T06:33:39;13.75;;;9.70;;
39242;SDS011;29823;47.404;8.566;2023-06-26T06:36:09;16.50;;;10.65;;
39242;SDS011;29823;47.404;8.566;2023-06-26T06:38:37;15.57;;;9.35;;
39242;SDS011;29823;47.404;8.566;2023-06-26T06:41:04;15.88;;;9.48;;
39242;SDS011;29823;47.404;8.566;2023-06-26T06:43:34;18.58;;;10.27;;
39242;SDS011;29823;47.404;8.566;2023-06-26T06:46:02;14.68;;;9.48;;
39242;SDS011;29823;47.404;8.566;2023-06-26T06:48:30;16.25;;;9.60;;
39242;SDS011;29823;47.404;8.566;2023-06-26T06:50:58;12.60;;;8.27;;
39242;SDS011;29823;47.404;8.566;2023-06-26T06:53:27;12.23;;;8.35;;
39242;SDS011;29823;47.404;8.566;2023-06-26T06:55:55;11.50;;;7.88;;
39242;SDS011;29823;47.404;8.566;2023-06-26T06:58:23;11.73;;;7.70;;
39242;SDS011;29823;47.404;8.566;2023-06-26T07:00:51;12.10;;;7.32;;
39242;SDS011;29823;47.404;8.566;2023-06-26T07:03:21;12.52;;;7.30;;
39242;SDS011;29823;47.404;8.566;2023-06-26T07:05:49;14.25;;;6.93;;
39242;SDS011;29823;47.404;8.566;2023-06-26T07:08:17;14.35;;;7.00;;
39242;SDS011;29823;47.404;8.566;2023-06-26T07:10:47;8.40;;;7.10;;
39242;SDS011;29823;47.404;8.566;2023-06-26T07:13:14;8.10;;;6.90;;
39242;SDS011;29823;47.404;8.566;2023-06-26T07:15:43;12.65;;;7.47;;
39242;SDS011;29823;47.404;8.566;2023-06-26T07:18:11;10.07;;;7.43;;
39242;SDS011;29823;47.404;8.566;2023-06-26T07:20:39;9.07;;;6.95;;
39242;SDS011;29823;47.404;8.566;2023-06-26T07:23:07;10.23;;;7.32;;
39242;SDS011;29823;47.404;8.566;2023-06-26T07:25:35;10.20;;;7.38;;
39242;SDS011;29823;47.404;8.566;2023-06-26T07:28:06;16.10;;;7.75;;
39242;SDS011;29823;47.404;8.566;2023-06-26T07:30:37;14.20;;;7.70;;
39242;SDS011;29823;47.404;8.566;2023-06-26T07:33:06;12.80;;;7.47;;
39242;SDS011;29823;47.404;8.566;2023-06-26T07:35:35;16.02;;;7.65;;
39242;SDS011;29823;47.404;8.566;2023-06-26T07:38:03;9.65;;;7.43;;
39242;SDS011;29823;47.404;8.566;2023-06-26T07:40:33;10.73;;;7.38;;
39242;SDS011;29823;47.404;8.566;2023-06-26T07:43:03;9.45;;;6.88;;
39242;SDS011;29823;47.404;8.566;2023-06-26T07:45:42;10.10;;;7.32;;
39242;SDS011;29823;47.404;8.566;2023-06-26T07:48:20;11.90;;;6.93;;
39242;SDS011;29823;47.404;8.566;2023-06-26T07:50:53;9.10;;;6.82;;
39242;SDS011;29823;47.404;8.566;2023-06-26T07:53:24;13.02;;;6.95;;
39242;SDS011;29823;47.404;8.566;2023-06-26T07:55:55;13.20;;;6.82;;
39242;SDS011;29823;47.404;8.566;2023-06-26T07:58:25;10.15;;;6.57;;
39242;SDS011;29823;47.404;8.566;2023-06-26T08:00:56;10.77;;;6.65;;
39242;SDS011;29823;47.404;8.566;2023-06-26T08:03:26;16.48;;;6.95;;
39242;SDS011;29823;47.404;8.566;2023-06-26T08:06:01;9.10;;;6.22;;
39242;SDS011;29823;47.404;8.566;2023-06-26T08:08:30;9.32;;;6.55;;
39242;SDS011;29823;47.404;8.566;2023-06-26T08:11:02;11.05;;;6.68;;
39242;SDS011;29823;47.404;8.566;2023-06-26T08:13:31;12.18;;;6.43;;
39242;SDS011;29823;47.404;8.566;2023-06-26T08:16:01;13.02;;;6.55;;
39242;SDS011;29823;47.404;8.566;2023-06-26T08:18:29;9.32;;;6.88;;
39242;SDS011;29823;47.404;8.566;2023-06-26T08:20:59;11.70;;;7.13;;
39242;SDS011;29823;47.404;8.566;2023-06-26T08:23:27;12.10;;;7.15;;
39242;SDS011;29823;47.404;8.566;2023-06-26T08:25:55;10.80;;;6.70;;
39242;SDS011;29823;47.404;8.566;2023-06-26T08:28:25;7.20;;;6.10;;
39242;SDS011;29823;47.404;8.566;2023-06-26T08:30:53;10.57;;;6.55;;
39242;SDS011;29823;47.404;8.566;2023-06-26T08:33:23;14.45;;;6.95;;
39242;SDS011;29823;47.404;8.566;2023-06-26T08:35:51;12.85;;;6.95;;
39242;SDS011;29823;47.404;8.566;2023-06-26T08:38:19;10.85;;;6.68;;
39242;SDS011;29823;47.404;8.566;2023-06-26T08:40:47;12.80;;;6.22;;
39242;SDS011;29823;47.404;8.566;2023-06-26T08:43:15;12.25;;;6.82;;
39242;SDS011;29823;47.404;8.566;2023-06-26T08:45:43;8.00;;;6.38;;
39242;SDS011;29823;47.404;8.566;2023-06-26T08:48:12;9.55;;;6.00;;
39242;SDS011;29823;47.404;8.566;2023-06-26T08:50:42;9.88;;;6.43;;
39242;SDS011;29823;47.404;8.566;2023-06-26T08:53:18;8.20;;;7.20;;
39242;SDS011;29823;47.404;8.566;2023-06-26T08:55:52;12.27;;;7.05;;
39242;SDS011;29823;47.404;8.566;2023-06-26T08:58:26;8.10;;;6.40;;
39242;SDS011;29823;47.404;8.566;2023-06-26T09:00:55;8.88;;;6.70;;
39242;SDS011;29823;47.404;8.566;2023-06-26T09:03:23;7.68;;;6.63;;
39242;SDS011;29823;47.404;8.566;2023-06-26T09:05:57;8.07;;;5.93;;
39242;SDS011;29823;47.404;8.566;2023-06-26T09:08:25;8.07;;;7.05;;
39242;SDS011;29823;47.404;8.566;2023-06-26T09:10:53;7.32;;;6.30;;
39242;SDS011;29823;47.404;8.566;2023-06-26T09:13:22;16.40;;;6.75;;
39242;SDS011;29823;47.404;8.566;2023-06-26T09:15:55;7.75;;;6.65;;
39242;SDS011;29823;47.404;8.566;2023-06-26T09:18:24;11.95;;;7.00;;
39242;SDS011;29823;47.404;8.566;2023-06-26T09:20:52;13.90;;;6.88;;
39242;SDS011;29823;47.404;8.566;2023-06-26T09:23:23;8.25;;;6.13;;
39242;SDS011;29823;47.404;8.566;2023-06-26T09:25:56;8.95;;;6.97;;
39242;SDS011;29823;47.404;8.566;2023-06-26T09:28:28;14.68;;;6.70;;
39242;SDS011;29823;47.404;8.566;2023-06-26T09:31:00;15.00;;;6.93;;
39242;SDS011;29823;47.404;8.566;2023-06-26T09:33:34;13.25;;;7.18;;
39242;SDS011;29823;47.404;8.566;2023-06-26T09:36:06;11.75;;;7.10;;
39242;SDS011;29823;47.404;8.566;2023-06-26T09:38:37;8.05;;;6.60;;
39242;SDS011;29823;47.404;8.566;2023-06-26T09:41:05;7.40;;;6.07;;
39242;SDS011;29823;47.404;8.566;2023-06-26T09:43:36;7.50;;;6.28;;
39242;SDS011;29823;47.404;8.566;2023-06-26T09:46:15;10.43;;;6.28;;
39242;SDS011;29823;47.404;8.566;2023-06-26T09:48:43;8.30;;;6.80;;
39242;SDS011;29823;47.404;8.566;2023-06-26T09:51:11;8.75;;;6.50;;
39242;SDS011;29823;47.404;8.566;2023-06-26T09:53:46;7.97;;;6.20;;
39242;SDS011;29823;47.404;8.566;2023-06-26T09:56:17;11.88;;;6.32;;
39242;SDS011;29823;47.404;8.566;2023-06-26T09:58:45;10.10;;;6.35;;
39242;SDS011;29823;47.404;8.566;2023-06-26T10:01:14;8.10;;;5.75;;
39242;SDS011;29823;47.404;8.566;2023-06-26T10:03:43;6.70;;;5.70;;
39242;SDS011;29823;47.404;8.566;2023-06-26T10:06:13;9.40;;;6.22;;
39242;SDS011;29823;47.404;8.566;2023-06-26T10:08:46;7.97;;;6.43;;
39242;SDS011;29823;47.404;8.566;2023-06-26T10:11:16;9.73;;;6.25;;
39242;SDS011;29823;47.404;8.566;2023-06-26T10:13:47;11.98;;;6.25;;
39242;SDS011;29823;47.404;8.566;2023-06-26T10:16:27;7.80;;;6.63;;
39242;SDS011;29823;47.404;8.566;2023-06-26T10:19:06;6.60;;;5.88;;
39242;SDS011;29823;47.404;8.566;2023-06-26T10:24:10;12.48;;;6.25;;
39242;SDS011;29823;47.404;8.566;2023-06-26T10:26:42;7.10;;;6.25;;
39242;SDS011;29823;47.404;8.566;2023-06-26T10:29:14;6.75;;;5.90;;
39242;SDS011;29823;47.404;8.566;2023-06-26T10:31:48;8.50;;;5.90;;
39242;SDS011;29823;47.404;8.566;2023-06-26T10:34:20;6.65;;;5.65;;
39242;SDS011;29823;47.404;8.566;2023-06-26T10:36:55;7.27;;;6.27;;
39242;SDS011;29823;47.404;8.566;2023-06-26T10:39:29;11.50;;;5.97;;
39242;SDS011;29823;47.404;8.566;2023-06-26T10:42:18;7.10;;;6.35;;
39242;SDS011;29823;47.404;8.566;2023-06-26T10:44:47;7.38;;;5.88;;
39242;SDS011;29823;47.404;8.566;2023-06-26T10:47:29;11.93;;;6.38;;
39242;SDS011;29823;47.404;8.566;2023-06-26T10:53:11;9.07;;;6.28;;
39242;SDS011;29823;47.404;8.566;2023-06-26T10:55:57;8.40;;;6.28;;
39242;SDS011;29823;47.404;8.566;2023-06-26T10:58:33;11.15;;;5.97;;
39242;SDS011;29823;47.404;8.566;2023-06-26T11:01:19;6.80;;;5.88;;
39242;SDS011;29823;47.404;8.566;2023-06-26T11:03:59;8.15;;;6.18;;
39242;SDS011;29823;47.404;8.566;2023-06-26T11:06:32;7.20;;;5.50;;
39242;SDS011;29823;47.404;8.566;2023-06-26T11:09:01;7.75;;;6.20;;
39242;SDS011;29823;47.404;8.566;2023-06-26T11:14:32;11.07;;;6.18;;
39242;SDS011;29823;47.404;8.566;2023-06-26T11:17:03;7.07;;;6.03;;
39242;SDS011;29823;47.404;8.566;2023-06-26T11:19:32;10.35;;;6.05;;
39242;SDS011;29823;47.404;8.566;2023-06-26T11:22:03;7.40;;;6.45;;
39242;SDS011;29823;47.404;8.566;2023-06-26T11:24:32;14.52;;;6.63;;
39242;SDS011;29823;47.404;8.566;2023-06-26T11:27:04;11.35;;;6.13;;
39242;SDS011;29823;47.404;8.566;2023-06-26T11:29:34;10.73;;;6.65;;
39242;SDS011;29823;47.404;8.566;2023-06-26T11:32:07;9.73;;;6.70;;
39242;SDS011;29823;47.404;8.566;2023-06-26T11:34:36;10.18;;;6.75;;
39242;SDS011;29823;47.404;8.566;2023-06-26T11:37:05;11.88;;;6.55;;
39242;SDS011;29823;47.404;8.566;2023-06-26T11:39:34;7.53;;;6.07;;
39242;SDS011;29823;47.404;8.566;2023-06-26T11:42:04;20.02;;;6.75;;
39242;SDS011;29823;47.404;8.566;2023-06-26T11:44:32;12.25;;;7.03;;
39242;SDS011;29823;47.404;8.566;2023-06-26T11:47:08;9.20;;;6.47;;
39242;SDS011;29823;47.404;8.566;2023-06-26T11:49:39;9.20;;;6.97;;
39242;SDS011;29823;47.404;8.566;2023-06-26T11:52:10;10.23;;;6.57;;
39242;SDS011;29823;47.404;8.566;2023-06-26T11:54:38;10.32;;;7.00;;
39242;SDS011;29823;47.404;8.566;2023-06-26T11:57:07;12.73;;;6.57;;
39242;SDS011;29823;47.404;8.566;2023-06-26T11:59:40;15.52;;;6.95;;
39242;SDS011;29823;47.404;8.566;2023-06-26T12:02:09;11.80;;;7.15;;
39242;SDS011;29823;47.404;8.566;2023-06-26T12:04:38;8.10;;;6.82;;
39242;SDS011;29823;47.404;8.566;2023-06-26T12:07:08;8.07;;;6.60;;
39242;SDS011;29823;47.404;8.566;2023-06-26T12:09:38;7.60;;;6.85;;
39242;SDS011;29823;47.404;8.566;2023-06-26T12:12:09;14.43;;;6.97;;
39242;SDS011;29823;47.404;8.566;2023-06-26T12:14:38;14.68;;;7.47;;
39242;SDS011;29823;47.404;8.566;2023-06-26T12:17:08;14.55;;;7.80;;
39242;SDS011;29823;47.404;8.566;2023-06-26T12:19:37;22.65;;;7.50;;
39242;SDS011;29823;47.404;8.566;2023-06-26T12:22:06;13.18;;;7.70;;
39242;SDS011;29823;47.404;8.566;2023-06-26T12:24:37;8.30;;;6.85;;
39242;SDS011;29823;47.404;8.566;2023-06-26T12:27:10;16.67;;;7.80;;
39242;SDS011;29823;47.404;8.566;2023-06-26T12:29:40;15.90;;;7.72;;
39242;SDS011;29823;47.404;8.566;2023-06-26T12:32:17;11.50;;;7.50;;
39242;SDS011;29823;47.404;8.566;2023-06-26T12:34:46;14.30;;;9.10;;
39242;SDS011;29823;47.404;8.566;2023-06-26T12:37:19;9.43;;;7.55;;
39242;SDS011;29823;47.404;8.566;2023-06-26T12:39:48;10.63;;;6.95;;
39242;SDS011;29823;47.404;8.566;2023-06-26T12:42:18;10.63;;;7.28;;
39242;SDS011;29823;47.404;8.566;2023-06-26T12:44:47;19.77;;;7.43;;
39242;SDS011;29823;47.404;8.566;2023-06-26T12:47:16;10.15;;;7.47;;
39242;SDS011;29823;47.404;8.566;2023-06-26T12:49:45;12.93;;;8.13;;
39242;SDS011;29823;47.404;8.566;2023-06-26T12:52:17;13.43;;;8.00;;
39242;SDS011;29823;47.404;8.566;2023-06-26T12:54:46;13.10;;;8.20;;
39242;SDS011;29823;47.404;8.566;2023-06-26T12:57:20;12.43;;;7.63;;
39242;SDS011;29823;47.404;8.566;2023-06-26T12:59:48;8.63;;;6.95;;
39242;SDS011;29823;47.404;8.566;2023-06-26T13:02:16;17.13;;;7.57;;
39242;SDS011;29823;47.404;8.566;2023-06-26T13:04:45;15.57;;;7.53;;
39242;SDS011;29823;47.404;8.566;2023-06-26T13:07:13;12.82;;;7.55;;
39242;SDS011;29823;47.404;8.566;2023-06-26T13:09:41;10.70;;;7.43;;
39242;SDS011;29823;47.404;8.566;2023-06-26T13:12:12;12.90;;;7.43;;
39242;SDS011;29823;47.404;8.566;2023-06-26T13:14:41;11.65;;;6.78;;
39242;SDS011;29823;47.404;8.566;2023-06-26T13:17:10;12.05;;;7.30;;
39242;SDS011;29823;47.404;8.566;2023-06-26T13:19:38;14.38;;;6.85;;
39242;SDS011;29823;47.404;8.566;2023-06-26T13:22:06;12.52;;;7.03;;
39242;SDS011;29823;47.404;8.566;2023-06-26T13:24:34;10.07;;;6.57;;
39242;SDS011;29823;47.404;8.566;2023-06-26T13:27:02;15.13;;;6.93;;
39242;SDS011;29823;47.404;8.566;2023-06-26T13:29:31;12.52;;;7.20;;
39242;SDS011;29823;47.404;8.566;2023-06-26T13:32:01;11.32;;;7.95;;
39242;SDS011;29823;47.404;8.566;2023-06-26T13:34:30;10.85;;;6.82;;
39242;SDS011;29823;47.404;8.566;2023-06-26T13:36:58;11.77;;;6.80;;
39242;SDS011;29823;47.404;8.566;2023-06-26T13:39:27;13.57;;;7.20;;
39242;SDS011;29823;47.404;8.566;2023-06-26T13:41:55;12.25;;;7.30;;
39242;SDS011;29823;47.404;8.566;2023-06-26T13:44:23;16.10;;;7.18;;
39242;SDS011;29823;47.404;8.566;2023-06-26T13:47:08;14.35;;;7.35;;
39242;SDS011;29823;47.404;8.566;2023-06-26T13:49:37;9.82;;;7.93;;
39242;SDS011;29823;47.404;8.566;2023-06-26T13:52:05;15.85;;;7.35;;
39242;SDS011;29823;47.404;8.566;2023-06-26T13:54:34;12.48;;;6.70;;
39242;SDS011;29823;47.404;8.566;2023-06-26T13:57:03;12.95;;;6.90;;
39242;SDS011;29823;47.404;8.566;2023-06-26T13:59:31;8.90;;;7.07;;
39242;SDS011;29823;47.404;8.566;2023-06-26T14:02:00;15.95;;;6.65;;
39242;SDS011;29823;47.404;8.566;2023-06-26T14:04:29;12.38;;;6.63;;
39242;SDS011;29823;47.404;8.566;2023-06-26T14:06:57;13.90;;;6.65;;
39242;SDS011;29823;47.404;8.566;2023-06-26T14:09:26;9.65;;;6.78;;
39242;SDS011;29823;47.404;8.566;2023-06-26T14:11:54;9.00;;;6.93;;
39242;SDS011;29823;47.404;8.566;2023-06-26T14:14:22;11.98;;;6.55;;
39242;SDS011;29823;47.404;8.566;2023-06-26T14:16:50;8.95;;;6.13;;
39242;SDS011;29823;47.404;8.566;2023-06-26T14:19:18;7.20;;;6.20;;
39242;SDS011;29823;47.404;8.566;2023-06-26T14:21:47;11.77;;;5.95;;
39242;SDS011;29823;47.404;8.566;2023-06-26T14:24:15;11.15;;;6.40;;
39242;SDS011;29823;47.404;8.566;2023-06-26T14:26:43;13.57;;;6.70;;
39242;SDS011;29823;47.404;8.566;2023-06-26T14:29:11;10.45;;;6.50;;
39242;SDS011;29823;47.404;8.566;2023-06-26T14:31:41;9.50;;;6.50;;
39242;SDS011;29823;47.404;8.566;2023-06-26T14:34:09;12.38;;;6.28;;
39242;SDS011;29823;47.404;8.566;2023-06-26T14:36:37;10.80;;;5.75;;
39242;SDS011;29823;47.404;8.566;2023-06-26T14:39:06;8.98;;;6.10;;
39242;SDS011;29823;47.404;8.566;2023-06-26T14:41:35;12.35;;;6.03;;
39242;SDS011;29823;47.404;8.566;2023-06-26T14:44:03;11.40;;;5.90;;
39242;SDS011;29823;47.404;8.566;2023-06-26T14:46:34;10.13;;;5.65;;
39242;SDS011;29823;47.404;8.566;2023-06-26T14:49:03;7.13;;;5.63;;
39242;SDS011;29823;47.404;8.566;2023-06-26T14:51:31;12.05;;;6.05;;
39242;SDS011;29823;47.404;8.566;2023-06-26T14:53:59;10.68;;;5.93;;
39242;SDS011;29823;47.404;8.566;2023-06-26T14:56:28;12.98;;;6.30;;
39242;SDS011;29823;47.404;8.566;2023-06-26T14:58:56;8.13;;;6.18;;
39242;SDS011;29823;47.404;8.566;2023-06-26T15:01:24;13.82;;;6.55;;
39242;SDS011;29823;47.404;8.566;2023-06-26T15:03:56;10.48;;;5.85;;